sensor_id;sensor_type;location;lat;lon;timestamp;P1;P2;P0
64627;PMS5003;68467;50.960;0.314;2023-12-14T00:00:19;5;5;
64627;PMS5003;68467;50.960;0.314;2023-12-14T00:02:46;8;6;
64627;PMS5003;68467;50.960;0.314;2023-12-14T00:05:14;4;4;
64627;PMS5003;68467;50.960;0.314;2023-12-14T00:07:41;4;4;
64627;PMS5003;68467;50.960;0.314;2023-12-14T00:10:08;5;5;
64627;PMS5003;68467;50.960;0.314;2023-12-14T00:12:35;5;3;
64627;PMS5003;68467;50.960;0.314;2023-12-14T00:15:02;5;4;
64627;PMS5003;68467;50.960;0.314;2023-12-14T00:17:30;5;5;
64627;PMS5003;68467;50.960;0.314;2023-12-14T00:19:57;7;6;
64627;PMS5003;68467;50.960;0.314;2023-12-14T00:22:24;5;5;
64627;PMS5003;68467;50.960;0.314;2023-12-14T00:24:51;4;4;
64627;PMS5003;68467;50.960;0.314;2023-12-14T00:27:19;5;5;
64627;PMS5003;68467;50.960;0.314;2023-12-14T00:29:46;5;5;
64627;PMS5003;68467;50.960;0.314;2023-12-14T00:32:13;6;5;
64627;PMS5003;68467;50.960;0.314;2023-12-14T00:34:40;5;5;
64627;PMS5003;68467;50.960;0.314;2023-12-14T00:37:07;6;5;
64627;PMS5003;68467;50.960;0.314;2023-12-14T00:39:34;6;6;
64627;PMS5003;68467;50.960;0.314;2023-12-14T00:42:02;6;5;
64627;PMS5003;68467;50.960;0.314;2023-12-14T00:44:29;6;6;
64627;PMS5003;68467;50.960;0.314;2023-12-14T00:46:56;6;5;
64627;PMS5003;68467;50.960;0.314;2023-12-14T00:49:23;6;6;
64627;PMS5003;68467;50.960;0.314;2023-12-14T00:51:50;4;4;
64627;PMS5003;68467;50.960;0.314;2023-12-14T00:54:18;7;5;
64627;PMS5003;68467;50.960;0.314;2023-12-14T00:56:45;4;4;
64627;PMS5003;68467;50.960;0.314;2023-12-14T00:59:12;6;6;
64627;PMS5003;68467;50.960;0.314;2023-12-14T01:01:39;6;5;
64627;PMS5003;68467;50.960;0.314;2023-12-14T01:04:06;6;6;
64627;PMS5003;68467;50.960;0.314;2023-12-14T01:06:33;7;6;
64627;PMS5003;68467;50.960;0.314;2023-12-14T01:09:01;6;6;
64627;PMS5003;68467;50.960;0.314;2023-12-14T01:11:28;7;5;
64627;PMS5003;68467;50.960;0.314;2023-12-14T01:13:55;5;5;
64627;PMS5003;68467;50.960;0.314;2023-12-14T01:16:25;5;5;
64627;PMS5003;68467;50.960;0.314;2023-12-14T01:18:53;7;7;
64627;PMS5003;68467;50.960;0.314;2023-12-14T01:21:20;5;5;
64627;PMS5003;68467;50.960;0.314;2023-12-14T01:23:47;6;6;
64627;PMS5003;68467;50.960;0.314;2023-12-14T01:26:14;6;6;
64627;PMS5003;68467;50.960;0.314;2023-12-14T01:28:41;6;6;
64627;PMS5003;68467;50.960;0.314;2023-12-14T01:31:09;9;9;
64627;PMS5003;68467;50.960;0.314;2023-12-14T01:33:36;5;5;
64627;PMS5003;68467;50.960;0.314;2023-12-14T01:36:04;7;6;
64627;PMS5003;68467;50.960;0.314;2023-12-14T01:38:32;7;6;
64627;PMS5003;68467;50.960;0.314;2023-12-14T01:40:59;4;4;
64627;PMS5003;68467;50.960;0.314;2023-12-14T01:43:26;6;4;
64627;PMS5003;68467;50.960;0.314;2023-12-14T01:45:53;6;5;
64627;PMS5003;68467;50.960;0.314;2023-12-14T01:48:20;6;6;
64627;PMS5003;68467;50.960;0.314;2023-12-14T01:50:47;7;7;
64627;PMS5003;68467;50.960;0.314;2023-12-14T01:53:15;6;5;
64627;PMS5003;68467;50.960;0.314;2023-12-14T01:55:42;5;5;
64627;PMS5003;68467;50.960;0.314;2023-12-14T01:58:09;7;5;
64627;PMS5003;68467;50.960;0.314;2023-12-14T02:00:38;6;6;
64627;PMS5003;68467;50.960;0.314;2023-12-14T02:03:10;7;7;
64627;PMS5003;68467;50.960;0.314;2023-12-14T02:05:37;8;7;
64627;PMS5003;68467;50.960;0.314;2023-12-14T02:08:05;6;6;
64627;PMS5003;68467;50.960;0.314;2023-12-14T02:10:32;8;8;
64627;PMS5003;68467;50.960;0.314;2023-12-14T02:13:00;6;6;
64627;PMS5003;68467;50.960;0.314;2023-12-14T02:15:27;7;7;
64627;PMS5003;68467;50.960;0.314;2023-12-14T02:17:54;7;7;
64627;PMS5003;68467;50.960;0.314;2023-12-14T02:20:21;5;5;
64627;PMS5003;68467;50.960;0.314;2023-12-14T02:22:49;9;8;
64627;PMS5003;68467;50.960;0.314;2023-12-14T02:25:16;6;6;
64627;PMS5003;68467;50.960;0.314;2023-12-14T02:27:43;8;7;
64627;PMS5003;68467;50.960;0.314;2023-12-14T02:30:10;6;5;
64627;PMS5003;68467;50.960;0.314;2023-12-14T02:32:38;5;5;
64627;PMS5003;68467;50.960;0.314;2023-12-14T02:35:06;7;6;
64627;PMS5003;68467;50.960;0.314;2023-12-14T02:37:34;8;8;
64627;PMS5003;68467;50.960;0.314;2023-12-14T02:40:02;7;6;
64627;PMS5003;68467;50.960;0.314;2023-12-14T02:42:30;7;7;
64627;PMS5003;68467;50.960;0.314;2023-12-14T02:44:57;6;6;
64627;PMS5003;68467;50.960;0.314;2023-12-14T02:47:25;6;6;
64627;PMS5003;68467;50.960;0.314;2023-12-14T02:49:52;6;6;
64627;PMS5003;68467;50.960;0.314;2023-12-14T02:52:19;5;5;
64627;PMS5003;68467;50.960;0.314;2023-12-14T02:54:46;6;5;
64627;PMS5003;68467;50.960;0.314;2023-12-14T02:57:13;5;5;
64627;PMS5003;68467;50.960;0.314;2023-12-14T02:59:40;5;5;
64627;PMS5003;68467;50.960;0.314;2023-12-14T03:02:08;9;8;
64627;PMS5003;68467;50.960;0.314;2023-12-14T03:04:37;5;5;
64627;PMS5003;68467;50.960;0.314;2023-12-14T03:07:05;5;5;
64627;PMS5003;68467;50.960;0.314;2023-12-14T03:09:32;5;5;
64627;PMS5003;68467;50.960;0.314;2023-12-14T03:12:00;5;5;
64627;PMS5003;68467;50.960;0.314;2023-12-14T03:14:31;5;5;
64627;PMS5003;68467;50.960;0.314;2023-12-14T03:16:59;5;5;
64627;PMS5003;68467;50.960;0.314;2023-12-14T03:19:26;5;5;
64627;PMS5003;68467;50.960;0.314;2023-12-14T03:21:53;4;4;
64627;PMS5003;68467;50.960;0.314;2023-12-14T03:24:21;6;6;
64627;PMS5003;68467;50.960;0.314;2023-12-14T03:26:48;6;6;
64627;PMS5003;68467;50.960;0.314;2023-12-14T03:29:16;7;6;
64627;PMS5003;68467;50.960;0.314;2023-12-14T03:31:45;7;7;
64627;PMS5003;68467;50.960;0.314;2023-12-14T03:34:12;5;5;
64627;PMS5003;68467;50.960;0.314;2023-12-14T03:36:39;7;7;
64627;PMS5003;68467;50.960;0.314;2023-12-14T03:39:07;5;5;
64627;PMS5003;68467;50.960;0.314;2023-12-14T03:41:34;8;8;
64627;PMS5003;68467;50.960;0.314;2023-12-14T03:44:01;7;6;
64627;PMS5003;68467;50.960;0.314;2023-12-14T03:46:28;8;8;
64627;PMS5003;68467;50.960;0.314;2023-12-14T03:48:55;8;7;
64627;PMS5003;68467;50.960;0.314;2023-12-14T03:51:22;7;7;
64627;PMS5003;68467;50.960;0.314;2023-12-14T03:53:49;8;8;
64627;PMS5003;68467;50.960;0.314;2023-12-14T03:56:17;10;7;
64627;PMS5003;68467;50.960;0.314;2023-12-14T03:58:44;9;9;
64627;PMS5003;68467;50.960;0.314;2023-12-14T04:01:15;7;7;
64627;PMS5003;68467;50.960;0.314;2023-12-14T04:03:43;9;9;
64627;PMS5003;68467;50.960;0.314;2023-12-14T04:06:10;10;10;
64627;PMS5003;68467;50.960;0.314;2023-12-14T04:08:37;10;9;
64627;PMS5003;68467;50.960;0.314;2023-12-14T04:11:05;9;8;
64627;PMS5003;68467;50.960;0.314;2023-12-14T04:13:32;8;8;
64627;PMS5003;68467;50.960;0.314;2023-12-14T04:15:59;10;9;
64627;PMS5003;68467;50.960;0.314;2023-12-14T04:18:27;9;9;
64627;PMS5003;68467;50.960;0.314;2023-12-14T04:20:54;8;8;
64627;PMS5003;68467;50.960;0.314;2023-12-14T04:23:21;7;7;
64627;PMS5003;68467;50.960;0.314;2023-12-14T04:25:48;8;8;
64627;PMS5003;68467;50.960;0.314;2023-12-14T04:28:15;10;9;
64627;PMS5003;68467;50.960;0.314;2023-12-14T04:30:43;8;8;
64627;PMS5003;68467;50.960;0.314;2023-12-14T04:33:10;9;9;
64627;PMS5003;68467;50.960;0.314;2023-12-14T04:35:37;9;9;
64627;PMS5003;68467;50.960;0.314;2023-12-14T04:38:04;9;9;
64627;PMS5003;68467;50.960;0.314;2023-12-14T04:40:31;8;8;
64627;PMS5003;68467;50.960;0.314;2023-12-14T04:42:58;8;8;
64627;PMS5003;68467;50.960;0.314;2023-12-14T04:45:26;10;10;
64627;PMS5003;68467;50.960;0.314;2023-12-14T04:47:53;12;10;
64627;PMS5003;68467;50.960;0.314;2023-12-14T04:50:20;11;10;
64627;PMS5003;68467;50.960;0.314;2023-12-14T04:52:47;9;9;
64627;PMS5003;68467;50.960;0.314;2023-12-14T04:55:14;9;9;
64627;PMS5003;68467;50.960;0.314;2023-12-14T04:57:41;13;10;
64627;PMS5003;68467;50.960;0.314;2023-12-14T05:00:09;8;8;
64627;PMS5003;68467;50.960;0.314;2023-12-14T05:02:38;10;10;
64627;PMS5003;68467;50.960;0.314;2023-12-14T05:05:05;9;8;
64627;PMS5003;68467;50.960;0.314;2023-12-14T05:07:34;8;8;
64627;PMS5003;68467;50.960;0.314;2023-12-14T05:10:01;9;7;
64627;PMS5003;68467;50.960;0.314;2023-12-14T05:12:28;8;6;
64627;PMS5003;68467;50.960;0.314;2023-12-14T05:14:55;10;10;
64627;PMS5003;68467;50.960;0.314;2023-12-14T05:17:22;9;8;
64627;PMS5003;68467;50.960;0.314;2023-12-14T05:19:49;10;9;
64627;PMS5003;68467;50.960;0.314;2023-12-14T05:22:16;7;7;
64627;PMS5003;68467;50.960;0.314;2023-12-14T05:24:45;8;7;
64627;PMS5003;68467;50.960;0.314;2023-12-14T05:27:12;8;8;
64627;PMS5003;68467;50.960;0.314;2023-12-14T05:29:40;9;7;
64627;PMS5003;68467;50.960;0.314;2023-12-14T05:32:07;10;10;
64627;PMS5003;68467;50.960;0.314;2023-12-14T05:34:34;8;8;
64627;PMS5003;68467;50.960;0.314;2023-12-14T05:37:01;8;8;
64627;PMS5003;68467;50.960;0.314;2023-12-14T05:39:28;11;11;
64627;PMS5003;68467;50.960;0.314;2023-12-14T05:41:55;11;11;
64627;PMS5003;68467;50.960;0.314;2023-12-14T05:44:22;10;9;
64627;PMS5003;68467;50.960;0.314;2023-12-14T05:46:49;10;10;
64627;PMS5003;68467;50.960;0.314;2023-12-14T05:49:16;9;8;
64627;PMS5003;68467;50.960;0.314;2023-12-14T05:51:43;12;12;
64627;PMS5003;68467;50.960;0.314;2023-12-14T05:54:11;8;8;
64627;PMS5003;68467;50.960;0.314;2023-12-14T05:56:38;7;6;
64627;PMS5003;68467;50.960;0.314;2023-12-14T05:59:05;9;8;
64627;PMS5003;68467;50.960;0.314;2023-12-14T06:01:32;6;6;
64627;PMS5003;68467;50.960;0.314;2023-12-14T06:04:00;9;8;
64627;PMS5003;68467;50.960;0.314;2023-12-14T06:06:27;8;8;
64627;PMS5003;68467;50.960;0.314;2023-12-14T06:08:54;9;8;
64627;PMS5003;68467;50.960;0.314;2023-12-14T06:11:21;8;8;
64627;PMS5003;68467;50.960;0.314;2023-12-14T06:13:49;10;10;
64627;PMS5003;68467;50.960;0.314;2023-12-14T06:16:16;10;10;
64627;PMS5003;68467;50.960;0.314;2023-12-14T06:18:43;13;11;
64627;PMS5003;68467;50.960;0.314;2023-12-14T06:21:11;12;10;
64627;PMS5003;68467;50.960;0.314;2023-12-14T06:23:38;8;8;
64627;PMS5003;68467;50.960;0.314;2023-12-14T06:26:05;8;7;
64627;PMS5003;68467;50.960;0.314;2023-12-14T06:28:32;6;6;
64627;PMS5003;68467;50.960;0.314;2023-12-14T06:31:00;8;8;
64627;PMS5003;68467;50.960;0.314;2023-12-14T06:33:27;8;7;
64627;PMS5003;68467;50.960;0.314;2023-12-14T06:35:54;7;7;
64627;PMS5003;68467;50.960;0.314;2023-12-14T06:38:22;6;6;
64627;PMS5003;68467;50.960;0.314;2023-12-14T06:40:49;10;8;
64627;PMS5003;68467;50.960;0.314;2023-12-14T06:43:17;8;7;
64627;PMS5003;68467;50.960;0.314;2023-12-14T06:45:44;10;10;
64627;PMS5003;68467;50.960;0.314;2023-12-14T06:48:12;11;11;
64627;PMS5003;68467;50.960;0.314;2023-12-14T06:50:39;14;13;
64627;PMS5003;68467;50.960;0.314;2023-12-14T06:53:06;11;10;
64627;PMS5003;68467;50.960;0.314;2023-12-14T06:55:33;7;7;
64627;PMS5003;68467;50.960;0.314;2023-12-14T06:58:00;9;8;
64627;PMS5003;68467;50.960;0.314;2023-12-14T07:00:27;11;10;
64627;PMS5003;68467;50.960;0.314;2023-12-14T07:02:55;45;45;
64627;PMS5003;68467;50.960;0.314;2023-12-14T07:05:22;19;17;
64627;PMS5003;68467;50.960;0.314;2023-12-14T07:07:49;29;27;
64627;PMS5003;68467;50.960;0.314;2023-12-14T07:10:17;47;43;
64627;PMS5003;68467;50.960;0.314;2023-12-14T07:12:44;31;28;
64627;PMS5003;68467;50.960;0.314;2023-12-14T07:15:11;87;72;
64627;PMS5003;68467;50.960;0.314;2023-12-14T07:17:38;93;74;
64627;PMS5003;68467;50.960;0.314;2023-12-14T07:20:06;81;70;
64627;PMS5003;68467;50.960;0.314;2023-12-14T07:22:34;9;9;
64627;PMS5003;68467;50.960;0.314;2023-12-14T07:25:02;27;24;
64627;PMS5003;68467;50.960;0.314;2023-12-14T07:27:29;30;29;
64627;PMS5003;68467;50.960;0.314;2023-12-14T07:29:57;14;12;
64627;PMS5003;68467;50.960;0.314;2023-12-14T07:32:23;16;15;
64627;PMS5003;68467;50.960;0.314;2023-12-14T07:34:51;11;11;
64627;PMS5003;68467;50.960;0.314;2023-12-14T07:37:18;11;11;
64627;PMS5003;68467;50.960;0.314;2023-12-14T07:39:46;13;11;
64627;PMS5003;68467;50.960;0.314;2023-12-14T07:42:13;15;12;
64627;PMS5003;68467;50.960;0.314;2023-12-14T07:44:40;12;10;
64627;PMS5003;68467;50.960;0.314;2023-12-14T07:47:08;9;9;
64627;PMS5003;68467;50.960;0.314;2023-12-14T07:49:35;9;7;
64627;PMS5003;68467;50.960;0.314;2023-12-14T07:52:02;8;8;
64627;PMS5003;68467;50.960;0.314;2023-12-14T07:54:30;7;7;
64627;PMS5003;68467;50.960;0.314;2023-12-14T07:56:57;5;5;
64627;PMS5003;68467;50.960;0.314;2023-12-14T07:59:24;6;6;
64627;PMS5003;68467;50.960;0.314;2023-12-14T08:01:51;6;6;
64627;PMS5003;68467;50.960;0.314;2023-12-14T08:04:19;5;5;
64627;PMS5003;68467;50.960;0.314;2023-12-14T08:06:46;6;6;
64627;PMS5003;68467;50.960;0.314;2023-12-14T08:09:13;9;8;
64627;PMS5003;68467;50.960;0.314;2023-12-14T08:11:40;26;20;
64627;PMS5003;68467;50.960;0.314;2023-12-14T08:14:07;30;29;
64627;PMS5003;68467;50.960;0.314;2023-12-14T08:16:34;9;9;
64627;PMS5003;68467;50.960;0.314;2023-12-14T08:19:02;5;5;
64627;PMS5003;68467;50.960;0.314;2023-12-14T08:21:29;5;5;
64627;PMS5003;68467;50.960;0.314;2023-12-14T08:23:56;5;5;
64627;PMS5003;68467;50.960;0.314;2023-12-14T08:26:23;8;8;
64627;PMS5003;68467;50.960;0.314;2023-12-14T08:28:50;5;4;
64627;PMS5003;68467;50.960;0.314;2023-12-14T08:31:17;6;6;
64627;PMS5003;68467;50.960;0.314;2023-12-14T08:33:44;15;14;
64627;PMS5003;68467;50.960;0.314;2023-12-14T08:36:14;13;12;
64627;PMS5003;68467;50.960;0.314;2023-12-14T08:38:42;11;10;
64627;PMS5003;68467;50.960;0.314;2023-12-14T08:41:11;15;14;
64627;PMS5003;68467;50.960;0.314;2023-12-14T08:43:39;23;21;
64627;PMS5003;68467;50.960;0.314;2023-12-14T08:46:06;18;17;
64627;PMS5003;68467;50.960;0.314;2023-12-14T08:48:33;14;14;
64627;PMS5003;68467;50.960;0.314;2023-12-14T08:51:00;16;14;
64627;PMS5003;68467;50.960;0.314;2023-12-14T08:53:27;10;9;
64627;PMS5003;68467;50.960;0.314;2023-12-14T08:55:55;8;8;
64627;PMS5003;68467;50.960;0.314;2023-12-14T08:58:22;18;17;
64627;PMS5003;68467;50.960;0.314;2023-12-14T09:00:49;9;8;
64627;PMS5003;68467;50.960;0.314;2023-12-14T09:03:16;10;10;
64627;PMS5003;68467;50.960;0.314;2023-12-14T09:05:43;14;13;
64627;PMS5003;68467;50.960;0.314;2023-12-14T09:08:10;12;10;
64627;PMS5003;68467;50.960;0.314;2023-12-14T09:10:37;5;5;
64627;PMS5003;68467;50.960;0.314;2023-12-14T09:13:04;8;7;
64627;PMS5003;68467;50.960;0.314;2023-12-14T09:15:31;7;7;
64627;PMS5003;68467;50.960;0.314;2023-12-14T09:17:59;7;6;
64627;PMS5003;68467;50.960;0.314;2023-12-14T09:20:26;8;7;
64627;PMS5003;68467;50.960;0.314;2023-12-14T09:22:53;12;12;
64627;PMS5003;68467;50.960;0.314;2023-12-14T09:25:20;12;9;
64627;PMS5003;68467;50.960;0.314;2023-12-14T09:27:47;10;9;
64627;PMS5003;68467;50.960;0.314;2023-12-14T09:30:15;7;7;
64627;PMS5003;68467;50.960;0.314;2023-12-14T09:32:42;4;4;
64627;PMS5003;68467;50.960;0.314;2023-12-14T09:35:09;5;4;
64627;PMS5003;68467;50.960;0.314;2023-12-14T09:37:36;5;4;
64627;PMS5003;68467;50.960;0.314;2023-12-14T09:40:04;5;4;
64627;PMS5003;68467;50.960;0.314;2023-12-14T09:42:35;14;12;
64627;PMS5003;68467;50.960;0.314;2023-12-14T09:45:04;10;9;
64627;PMS5003;68467;50.960;0.314;2023-12-14T09:47:33;10;10;
64627;PMS5003;68467;50.960;0.314;2023-12-14T09:50:01;34;28;
64627;PMS5003;68467;50.960;0.314;2023-12-14T09:52:29;15;12;
64627;PMS5003;68467;50.960;0.314;2023-12-14T09:54:55;4;4;
64627;PMS5003;68467;50.960;0.314;2023-12-14T09:57:23;20;19;
64627;PMS5003;68467;50.960;0.314;2023-12-14T09:59:51;37;36;
64627;PMS5003;68467;50.960;0.314;2023-12-14T10:02:18;7;7;
64627;PMS5003;68467;50.960;0.314;2023-12-14T10:04:46;7;7;
64627;PMS5003;68467;50.960;0.314;2023-12-14T10:07:13;11;11;
64627;PMS5003;68467;50.960;0.314;2023-12-14T10:09:40;8;8;
64627;PMS5003;68467;50.960;0.314;2023-12-14T10:12:08;8;8;
64627;PMS5003;68467;50.960;0.314;2023-12-14T10:14:36;8;8;
64627;PMS5003;68467;50.960;0.314;2023-12-14T10:17:13;9;9;
64627;PMS5003;68467;50.960;0.314;2023-12-14T10:19:43;9;8;
64627;PMS5003;68467;50.960;0.314;2023-12-14T10:22:11;9;9;
64627;PMS5003;68467;50.960;0.314;2023-12-14T10:24:39;16;15;
64627;PMS5003;68467;50.960;0.314;2023-12-14T10:27:08;13;12;
64627;PMS5003;68467;50.960;0.314;2023-12-14T10:29:36;9;9;
64627;PMS5003;68467;50.960;0.314;2023-12-14T10:32:04;12;11;
64627;PMS5003;68467;50.960;0.314;2023-12-14T10:34:31;11;11;
64627;PMS5003;68467;50.960;0.314;2023-12-14T10:36:59;41;39;
64627;PMS5003;68467;50.960;0.314;2023-12-14T10:39:27;24;23;
64627;PMS5003;68467;50.960;0.314;2023-12-14T10:41:55;40;35;
64627;PMS5003;68467;50.960;0.314;2023-12-14T10:44:25;21;19;
64627;PMS5003;68467;50.960;0.314;2023-12-14T10:46:53;18;18;
64627;PMS5003;68467;50.960;0.314;2023-12-14T10:49:23;13;13;
64627;PMS5003;68467;50.960;0.314;2023-12-14T10:51:52;10;10;
64627;PMS5003;68467;50.960;0.314;2023-12-14T10:54:21;26;24;
64627;PMS5003;68467;50.960;0.314;2023-12-14T10:56:53;12;11;
64627;PMS5003;68467;50.960;0.314;2023-12-14T10:59:21;9;9;
64627;PMS5003;68467;50.960;0.314;2023-12-14T11:01:51;11;11;
64627;PMS5003;68467;50.960;0.314;2023-12-14T11:04:18;15;14;
64627;PMS5003;68467;50.960;0.314;2023-12-14T11:06:48;11;10;
64627;PMS5003;68467;50.960;0.314;2023-12-14T11:09:17;9;9;
64627;PMS5003;68467;50.960;0.314;2023-12-14T11:11:47;9;9;
64627;PMS5003;68467;50.960;0.314;2023-12-14T11:14:23;9;9;
64627;PMS5003;68467;50.960;0.314;2023-12-14T11:16:52;8;7;
64627;PMS5003;68467;50.960;0.314;2023-12-14T11:19:24;8;7;
64627;PMS5003;68467;50.960;0.314;2023-12-14T11:22:09;6;6;
64627;PMS5003;68467;50.960;0.314;2023-12-14T11:24:37;8;8;
64627;PMS5003;68467;50.960;0.314;2023-12-14T11:27:09;7;7;
64627;PMS5003;68467;50.960;0.314;2023-12-14T11:29:37;9;9;
64627;PMS5003;68467;50.960;0.314;2023-12-14T11:32:05;10;10;
64627;PMS5003;68467;50.960;0.314;2023-12-14T11:34:33;14;14;
64627;PMS5003;68467;50.960;0.314;2023-12-14T11:37:01;15;14;
64627;PMS5003;68467;50.960;0.314;2023-12-14T11:39:29;13;13;
64627;PMS5003;68467;50.960;0.314;2023-12-14T11:41:58;13;12;
64627;PMS5003;68467;50.960;0.314;2023-12-14T11:44:26;22;21;
64627;PMS5003;68467;50.960;0.314;2023-12-14T11:46:53;22;21;
64627;PMS5003;68467;50.960;0.314;2023-12-14T11:49:20;16;14;
64627;PMS5003;68467;50.960;0.314;2023-12-14T11:51:47;9;8;
64627;PMS5003;68467;50.960;0.314;2023-12-14T11:54:14;10;10;
64627;PMS5003;68467;50.960;0.314;2023-12-14T11:56:45;9;9;
64627;PMS5003;68467;50.960;0.314;2023-12-14T11:59:13;7;7;
64627;PMS5003;68467;50.960;0.314;2023-12-14T12:01:53;12;11;
64627;PMS5003;68467;50.960;0.314;2023-12-14T12:04:21;8;8;
64627;PMS5003;68467;50.960;0.314;2023-12-14T12:06:48;8;8;
64627;PMS5003;68467;50.960;0.314;2023-12-14T12:09:31;8;8;
64627;PMS5003;68467;50.960;0.314;2023-12-14T12:12:00;8;7;
64627;PMS5003;68467;50.960;0.314;2023-12-14T12:14:28;11;8;
64627;PMS5003;68467;50.960;0.314;2023-12-14T12:16:54;8;8;
64627;PMS5003;68467;50.960;0.314;2023-12-14T12:19:22;9;8;
64627;PMS5003;68467;50.960;0.314;2023-12-14T12:21:49;10;10;
64627;PMS5003;68467;50.960;0.314;2023-12-14T12:24:16;10;9;
64627;PMS5003;68467;50.960;0.314;2023-12-14T12:26:45;9;9;
64627;PMS5003;68467;50.960;0.314;2023-12-14T12:29:12;11;10;
64627;PMS5003;68467;50.960;0.314;2023-12-14T12:31:39;13;13;
64627;PMS5003;68467;50.960;0.314;2023-12-14T12:34:06;9;8;
64627;PMS5003;68467;50.960;0.314;2023-12-14T12:36:33;8;7;
64627;PMS5003;68467;50.960;0.314;2023-12-14T12:39:00;6;6;
64627;PMS5003;68467;50.960;0.314;2023-12-14T12:41:27;8;8;
64627;PMS5003;68467;50.960;0.314;2023-12-14T12:43:54;6;6;
64627;PMS5003;68467;50.960;0.314;2023-12-14T12:46:21;6;5;
64627;PMS5003;68467;50.960;0.314;2023-12-14T12:48:49;4;4;
64627;PMS5003;68467;50.960;0.314;2023-12-14T12:51:16;5;5;
64627;PMS5003;68467;50.960;0.314;2023-12-14T12:53:43;5;4;
64627;PMS5003;68467;50.960;0.314;2023-12-14T12:56:10;4;4;
64627;PMS5003;68467;50.960;0.314;2023-12-14T12:58:37;5;5;
64627;PMS5003;68467;50.960;0.314;2023-12-14T13:01:05;8;6;
64627;PMS5003;68467;50.960;0.314;2023-12-14T13:03:32;6;6;
64627;PMS5003;68467;50.960;0.314;2023-12-14T13:05:59;7;6;
64627;PMS5003;68467;50.960;0.314;2023-12-14T13:08:27;6;6;
64627;PMS5003;68467;50.960;0.314;2023-12-14T13:10:54;5;5;
64627;PMS5003;68467;50.960;0.314;2023-12-14T13:13:21;7;6;
64627;PMS5003;68467;50.960;0.314;2023-12-14T13:15:48;6;6;
64627;PMS5003;68467;50.960;0.314;2023-12-14T13:18:15;5;5;
64627;PMS5003;68467;50.960;0.314;2023-12-14T13:20:42;5;5;
64627;PMS5003;68467;50.960;0.314;2023-12-14T13:23:09;5;5;
64627;PMS5003;68467;50.960;0.314;2023-12-14T13:25:37;5;5;
64627;PMS5003;68467;50.960;0.314;2023-12-14T13:28:04;5;5;
64627;PMS5003;68467;50.960;0.314;2023-12-14T13:30:31;5;4;
64627;PMS5003;68467;50.960;0.314;2023-12-14T13:32:58;6;6;
64627;PMS5003;68467;50.960;0.314;2023-12-14T13:35:25;8;6;
64627;PMS5003;68467;50.960;0.314;2023-12-14T13:37:52;5;5;
64627;PMS5003;68467;50.960;0.314;2023-12-14T13:40:19;4;4;
64627;PMS5003;68467;50.960;0.314;2023-12-14T13:42:47;7;6;
64627;PMS5003;68467;50.960;0.314;2023-12-14T13:45:14;10;9;
64627;PMS5003;68467;50.960;0.314;2023-12-14T13:47:41;8;7;
64627;PMS5003;68467;50.960;0.314;2023-12-14T13:50:08;8;8;
64627;PMS5003;68467;50.960;0.314;2023-12-14T13:52:35;7;6;
64627;PMS5003;68467;50.960;0.314;2023-12-14T13:55:03;4;4;
64627;PMS5003;68467;50.960;0.314;2023-12-14T13:57:31;6;6;
64627;PMS5003;68467;50.960;0.314;2023-12-14T13:59:57;5;5;
64627;PMS5003;68467;50.960;0.314;2023-12-14T14:02:25;8;6;
64627;PMS5003;68467;50.960;0.314;2023-12-14T14:04:52;6;6;
64627;PMS5003;68467;50.960;0.314;2023-12-14T14:07:19;8;7;
64627;PMS5003;68467;50.960;0.314;2023-12-14T14:09:46;10;9;
64627;PMS5003;68467;50.960;0.314;2023-12-14T14:12:13;9;9;
64627;PMS5003;68467;50.960;0.314;2023-12-14T14:14:40;11;9;
64627;PMS5003;68467;50.960;0.314;2023-12-14T14:17:07;8;7;
64627;PMS5003;68467;50.960;0.314;2023-12-14T14:19:34;13;12;
64627;PMS5003;68467;50.960;0.314;2023-12-14T14:22:01;7;7;
64627;PMS5003;68467;50.960;0.314;2023-12-14T14:24:28;10;9;
64627;PMS5003;68467;50.960;0.314;2023-12-14T14:26:55;7;7;
64627;PMS5003;68467;50.960;0.314;2023-12-14T14:29:22;8;7;
64627;PMS5003;68467;50.960;0.314;2023-12-14T14:31:49;10;10;
64627;PMS5003;68467;50.960;0.314;2023-12-14T14:34:17;9;9;
64627;PMS5003;68467;50.960;0.314;2023-12-14T14:36:44;9;8;
64627;PMS5003;68467;50.960;0.314;2023-12-14T14:39:11;10;10;
64627;PMS5003;68467;50.960;0.314;2023-12-14T14:41:38;11;11;
64627;PMS5003;68467;50.960;0.314;2023-12-14T14:44:05;9;9;
64627;PMS5003;68467;50.960;0.314;2023-12-14T14:46:32;8;8;
64627;PMS5003;68467;50.960;0.314;2023-12-14T14:49:00;7;7;
64627;PMS5003;68467;50.960;0.314;2023-12-14T14:51:27;10;10;
64627;PMS5003;68467;50.960;0.314;2023-12-14T14:53:54;9;8;
64627;PMS5003;68467;50.960;0.314;2023-12-14T14:56:21;7;7;
64627;PMS5003;68467;50.960;0.314;2023-12-14T14:58:48;10;8;
64627;PMS5003;68467;50.960;0.314;2023-12-14T15:01:15;7;7;
64627;PMS5003;68467;50.960;0.314;2023-12-14T15:03:42;7;7;
64627;PMS5003;68467;50.960;0.314;2023-12-14T15:06:09;9;8;
64627;PMS5003;68467;50.960;0.314;2023-12-14T15:08:38;8;7;
64627;PMS5003;68467;50.960;0.314;2023-12-14T15:11:05;8;7;
64627;PMS5003;68467;50.960;0.314;2023-12-14T15:13:32;11;9;
64627;PMS5003;68467;50.960;0.314;2023-12-14T15:16:00;7;6;
64627;PMS5003;68467;50.960;0.314;2023-12-14T15:18:27;14;13;
64627;PMS5003;68467;50.960;0.314;2023-12-14T15:20:54;11;11;
64627;PMS5003;68467;50.960;0.314;2023-12-14T15:23:21;15;15;
64627;PMS5003;68467;50.960;0.314;2023-12-14T15:25:48;16;16;
64627;PMS5003;68467;50.960;0.314;2023-12-14T15:28:15;61;60;
64627;PMS5003;68467;50.960;0.314;2023-12-14T15:30:42;179;174;
64627;PMS5003;68467;50.960;0.314;2023-12-14T15:33:10;202;180;
64627;PMS5003;68467;50.960;0.314;2023-12-14T15:35:37;124;119;
64627;PMS5003;68467;50.960;0.314;2023-12-14T15:38:04;141;132;
64627;PMS5003;68467;50.960;0.314;2023-12-14T15:40:32;147;143;
64627;PMS5003;68467;50.960;0.314;2023-12-14T15:42:59;129;119;
64627;PMS5003;68467;50.960;0.314;2023-12-14T15:45:26;148;133;
64627;PMS5003;68467;50.960;0.314;2023-12-14T15:47:53;86;85;
64627;PMS5003;68467;50.960;0.314;2023-12-14T15:50:20;120;116;
64627;PMS5003;68467;50.960;0.314;2023-12-14T15:52:48;194;172;
64627;PMS5003;68467;50.960;0.314;2023-12-14T15:55:15;151;136;
64627;PMS5003;68467;50.960;0.314;2023-12-14T15:57:42;259;252;
64627;PMS5003;68467;50.960;0.314;2023-12-14T16:00:09;232;226;
64627;PMS5003;68467;50.960;0.314;2023-12-14T16:02:37;123;110;
64627;PMS5003;68467;50.960;0.314;2023-12-14T16:05:04;158;136;
64627;PMS5003;68467;50.960;0.314;2023-12-14T16:07:32;79;75;
64627;PMS5003;68467;50.960;0.314;2023-12-14T16:09:59;55;50;
64627;PMS5003;68467;50.960;0.314;2023-12-14T16:12:25;45;41;
64627;PMS5003;68467;50.960;0.314;2023-12-14T16:14:53;143;136;
64627;PMS5003;68467;50.960;0.314;2023-12-14T16:17:20;328;297;
64627;PMS5003;68467;50.960;0.314;2023-12-14T16:19:47;110;108;
64627;PMS5003;68467;50.960;0.314;2023-12-14T16:22:14;36;36;
64627;PMS5003;68467;50.960;0.314;2023-12-14T16:24:41;99;90;
64627;PMS5003;68467;50.960;0.314;2023-12-14T16:27:09;68;66;
64627;PMS5003;68467;50.960;0.314;2023-12-14T16:29:36;106;104;
64627;PMS5003;68467;50.960;0.314;2023-12-14T16:32:03;67;63;
64627;PMS5003;68467;50.960;0.314;2023-12-14T16:34:31;47;43;
64627;PMS5003;68467;50.960;0.314;2023-12-14T16:36:59;66;62;
64627;PMS5003;68467;50.960;0.314;2023-12-14T16:39:26;31;30;